sensor_id;sensor_type;location;lat;lon;timestamp;pressure;altitude;pressure_sealevel;temperature;humidity
55171;BME280;41060;47.510;8.680;2023-01-23T00:00:40;98027.63;;;2.74;48.74
55171;BME280;41060;47.510;8.680;2023-01-23T00:03:07;98025.75;;;2.77;49.47
55171;BME280;41060;47.510;8.680;2023-01-23T00:05:34;98027.88;;;2.91;48.75
55171;BME280;41060;47.510;8.680;2023-01-23T00:08:01;98044.97;;;3.01;48.90
55171;BME280;41060;47.510;8.680;2023-01-23T00:10:27;97867.63;;;2.13;48.98
55171;BME280;41060;47.510;8.680;2023-01-23T00:12:55;98029.56;;;3.18;48.59
55171;BME280;41060;47.510;8.680;2023-01-23T00:15:22;98020.22;;;3.11;48.17
55171;BME280;41060;47.510;8.680;2023-01-23T00:17:49;98022.09;;;3.31;48.02
55171;BME280;41060;47.510;8.680;2023-01-23T00:20:16;98018.63;;;3.30;47.80
55171;BME280;41060;47.510;8.680;2023-01-23T00:22:43;97988.69;;;3.14;48.04
55171;BME280;41060;47.510;8.680;2023-01-23T00:25:10;98016.78;;;3.34;48.22
55171;BME280;41060;47.510;8.680;2023-01-23T00:27:36;98006.91;;;3.17;47.96
55171;BME280;41060;47.510;8.680;2023-01-23T00:30:06;98023.03;;;3.05;48.77
55171;BME280;41060;47.510;8.680;2023-01-23T00:32:33;98023.19;;;3.01;49.36
55171;BME280;41060;47.510;8.680;2023-01-23T00:34:59;97843.03;;;1.94;48.78
55171;BME280;41060;47.510;8.680;2023-01-23T00:37:27;98031.94;;;3.00;50.00
55171;BME280;41060;47.510;8.680;2023-01-23T00:39:53;97927.38;;;2.48;49.23
55171;BME280;41060;47.510;8.680;2023-01-23T00:42:20;98019.56;;;3.05;48.66
55171;BME280;41060;47.510;8.680;2023-01-23T00:44:47;97969.78;;;2.83;49.01
55171;BME280;41060;47.510;8.680;2023-01-23T00:47:15;97951.50;;;2.81;48.50
55171;BME280;41060;47.510;8.680;2023-01-23T00:49:42;98022.91;;;3.33;48.23
55171;BME280;41060;47.510;8.680;2023-01-23T00:52:09;98021.28;;;3.29;48.59
55171;BME280;41060;47.510;8.680;2023-01-23T00:54:35;98022.91;;;3.08;49.29
55171;BME280;41060;47.510;8.680;2023-01-23T00:57:04;98031.81;;;3.04;49.62
55171;BME280;41060;47.510;8.680;2023-01-23T00:59:32;97967.25;;;2.80;48.94
55171;BME280;41060;47.510;8.680;2023-01-23T01:01:58;98025.03;;;3.22;49.14
55171;BME280;41060;47.510;8.680;2023-01-23T01:04:26;98018.84;;;3.24;48.96
55171;BME280;41060;47.510;8.680;2023-01-23T01:06:53;98025.94;;;3.21;48.73
55171;BME280;41060;47.510;8.680;2023-01-23T01:09:20;98022.66;;;3.16;48.62
55171;BME280;41060;47.510;8.680;2023-01-23T01:11:47;97976.63;;;2.85;49.00
55171;BME280;41060;47.510;8.680;2023-01-23T01:14:14;98013.94;;;3.15;48.26
55171;BME280;41060;47.510;8.680;2023-01-23T01:16:41;98040.59;;;3.26;48.98
55171;BME280;41060;47.510;8.680;2023-01-23T01:19:11;98039.13;;;3.19;48.85
55171;BME280;41060;47.510;8.680;2023-01-23T01:21:40;98040.69;;;3.23;48.52
55171;BME280;41060;47.510;8.680;2023-01-23T01:24:07;97973.44;;;2.77;48.53
55171;BME280;41060;47.510;8.680;2023-01-23T01:26:35;98056.97;;;3.07;49.27
55171;BME280;41060;47.510;8.680;2023-01-23T01:29:02;97926.38;;;2.52;48.55
55171;BME280;41060;47.510;8.680;2023-01-23T01:31:29;97858.50;;;2.25;48.46
55171;BME280;41060;47.510;8.680;2023-01-23T01:33:56;98047.91;;;3.17;48.46
55171;BME280;41060;47.510;8.680;2023-01-23T01:36:24;98041.78;;;3.18;48.21
55171;BME280;41060;47.510;8.680;2023-01-23T01:38:52;98047.25;;;3.12;48.42
55171;BME280;41060;47.510;8.680;2023-01-23T01:41:19;98053.00;;;2.96;48.69
55171;BME280;41060;47.510;8.680;2023-01-23T01:43:46;98016.47;;;2.69;49.05
55171;BME280;41060;47.510;8.680;2023-01-23T01:46:18;98048.59;;;2.72;49.20
55171;BME280;41060;47.510;8.680;2023-01-23T01:48:50;97893.94;;;1.80;49.06
55171;BME280;41060;47.510;8.680;2023-01-23T01:51:21;97881.00;;;1.77;49.53
55171;BME280;41060;47.510;8.680;2023-01-23T01:53:57;98038.22;;;2.69;49.51
55171;BME280;41060;47.510;8.680;2023-01-23T01:56:27;98013.44;;;2.54;49.27
55171;BME280;41060;47.510;8.680;2023-01-23T01:58:55;98034.06;;;2.64;49.36
55171;BME280;41060;47.510;8.680;2023-01-23T02:01:24;98034.59;;;2.73;49.26
55171;BME280;41060;47.510;8.680;2023-01-23T02:03:51;98034.22;;;2.84;49.09
55171;BME280;41060;47.510;8.680;2023-01-23T02:06:19;97984.09;;;2.46;49.30
55171;BME280;41060;47.510;8.680;2023-01-23T02:08:51;98039.38;;;2.87;49.74
55171;BME280;41060;47.510;8.680;2023-01-23T02:11:21;98041.78;;;2.93;48.75
55171;BME280;41060;47.510;8.680;2023-01-23T02:13:47;98034.59;;;2.73;48.60
55171;BME280;41060;47.510;8.680;2023-01-23T02:16:20;98014.81;;;2.66;48.99
55171;BME280;41060;47.510;8.680;2023-01-23T02:18:49;98042.06;;;2.84;49.48
55171;BME280;41060;47.510;8.680;2023-01-23T02:21:19;97945.28;;;2.34;49.33
55171;BME280;41060;47.510;8.680;2023-01-23T02:23:58;97986.78;;;2.70;49.25
55171;BME280;41060;47.510;8.680;2023-01-23T02:26:31;98031.25;;;2.94;48.79
55171;BME280;41060;47.510;8.680;2023-01-23T02:29:02;97976.47;;;2.65;48.95
55171;BME280;41060;47.510;8.680;2023-01-23T02:31:29;97995.34;;;2.75;48.27
55171;BME280;41060;47.510;8.680;2023-01-23T02:33:59;97984.22;;;2.68;48.95
55171;BME280;41060;47.510;8.680;2023-01-23T02:36:29;98038.03;;;3.00;48.71
55171;BME280;41060;47.510;8.680;2023-01-23T02:39:03;97858.97;;;2.11;48.95
55171;BME280;41060;47.510;8.680;2023-01-23T02:41:34;97999.69;;;2.99;48.73
55171;BME280;41060;47.510;8.680;2023-01-23T02:44:04;97998.38;;;2.87;48.39
55171;BME280;41060;47.510;8.680;2023-01-23T02:46:34;97968.81;;;2.61;48.63
55171;BME280;41060;47.510;8.680;2023-01-23T02:49:01;98024.78;;;2.80;49.01
55171;BME280;41060;47.510;8.680;2023-01-23T02:51:27;98023.94;;;2.79;49.06
55171;BME280;41060;47.510;8.680;2023-01-23T02:53:55;98023.84;;;2.82;49.32
55171;BME280;41060;47.510;8.680;2023-01-23T02:56:21;97974.16;;;2.56;49.04
55171;BME280;41060;47.510;8.680;2023-01-23T02:58:49;97785.56;;;1.43;48.89
55171;BME280;41060;47.510;8.680;2023-01-23T03:01:34;98020.06;;;2.65;49.82
55171;BME280;41060;47.510;8.680;2023-01-23T03:04:01;98025.00;;;2.74;49.71
55171;BME280;41060;47.510;8.680;2023-01-23T03:06:33;97939.06;;;2.12;49.20
55171;BME280;41060;47.510;8.680;2023-01-23T03:09:07;97990.31;;;2.42;49.74
55171;BME280;41060;47.510;8.680;2023-01-23T03:11:35;97994.34;;;2.52;49.11
55171;BME280;41060;47.510;8.680;2023-01-23T03:14:04;97864.28;;;1.83;49.29
55171;BME280;41060;47.510;8.680;2023-01-23T03:16:31;98040.13;;;2.90;48.95
55171;BME280;41060;47.510;8.680;2023-01-23T03:18:59;98037.94;;;3.03;48.41
55171;BME280;41060;47.510;8.680;2023-01-23T03:21:31;98005.78;;;2.75;48.60
55171;BME280;41060;47.510;8.680;2023-01-23T03:23:58;97836.50;;;1.80;48.26
55171;BME280;41060;47.510;8.680;2023-01-23T03:26:25;97989.56;;;2.65;47.90
55171;BME280;41060;47.510;8.680;2023-01-23T03:28:52;98032.53;;;2.83;48.65
55171;BME280;41060;47.510;8.680;2023-01-23T03:31:37;98010.22;;;2.73;48.48
55171;BME280;41060;47.510;8.680;2023-01-23T03:34:05;97978.34;;;2.62;48.32
55171;BME280;41060;47.510;8.680;2023-01-23T03:36:31;98032.44;;;2.86;47.97
55171;BME280;41060;47.510;8.680;2023-01-23T03:39:02;98042.66;;;2.92;47.37
55171;BME280;41060;47.510;8.680;2023-01-23T03:41:47;97979.56;;;2.51;47.81
55171;BME280;41060;47.510;8.680;2023-01-23T03:44:15;97864.94;;;1.63;48.09
55171;BME280;41060;47.510;8.680;2023-01-23T03:46:48;97991.03;;;2.21;47.78
55171;BME280;41060;47.510;8.680;2023-01-23T03:49:16;98046.44;;;2.58;48.85
55171;BME280;41060;47.510;8.680;2023-01-23T03:51:43;98015.16;;;2.29;48.13
55171;BME280;41060;47.510;8.680;2023-01-23T03:54:10;98048.06;;;2.35;48.35
55171;BME280;41060;47.510;8.680;2023-01-23T03:56:37;97990.75;;;2.02;48.17
55171;BME280;41060;47.510;8.680;2023-01-23T03:59:04;98016.72;;;2.35;47.58
55171;BME280;41060;47.510;8.680;2023-01-23T04:01:30;98048.41;;;2.52;47.28
55171;BME280;41060;47.510;8.680;2023-01-23T04:03:59;97861.97;;;1.20;47.77
55171;BME280;41060;47.510;8.680;2023-01-23T04:06:25;98058.69;;;2.30;48.12
55171;BME280;41060;47.510;8.680;2023-01-23T04:08:53;98009.03;;;2.02;47.95
55171;BME280;41060;47.510;8.680;2023-01-23T04:11:21;98013.47;;;2.00;47.69
55171;BME280;41060;47.510;8.680;2023-01-23T04:13:48;97798.25;;;0.70;47.60
55171;BME280;41060;47.510;8.680;2023-01-23T04:16:15;98055.75;;;2.39;47.94
55171;BME280;41060;47.510;8.680;2023-01-23T04:18:42;98054.56;;;2.49;47.23
55171;BME280;41060;47.510;8.680;2023-01-23T04:21:10;98055.38;;;2.51;47.16
55171;BME280;41060;47.510;8.680;2023-01-23T04:23:37;98051.97;;;2.49;46.63
55171;BME280;41060;47.510;8.680;2023-01-23T04:26:04;98054.69;;;2.46;47.15
55171;BME280;41060;47.510;8.680;2023-01-23T04:28:31;98058.34;;;2.41;47.35
55171;BME280;41060;47.510;8.680;2023-01-23T04:30:57;98059.44;;;2.34;46.89
55171;BME280;41060;47.510;8.680;2023-01-23T04:33:27;98059.94;;;2.17;47.02
55171;BME280;41060;47.510;8.680;2023-01-23T04:35:56;98064.63;;;2.07;47.65
55171;BME280;41060;47.510;8.680;2023-01-23T04:38:26;98070.91;;;2.30;47.48
55171;BME280;41060;47.510;8.680;2023-01-23T04:40:53;98016.22;;;1.96;47.62
55171;BME280;41060;47.510;8.680;2023-01-23T04:43:20;98063.03;;;2.31;47.60
55171;BME280;41060;47.510;8.680;2023-01-23T04:45:48;98058.06;;;2.22;46.70
55171;BME280;41060;47.510;8.680;2023-01-23T04:48:16;98064.47;;;2.12;46.96
55171;BME280;41060;47.510;8.680;2023-01-23T04:50:42;98069.50;;;2.18;46.49
55171;BME280;41060;47.510;8.680;2023-01-23T04:53:09;98059.78;;;2.23;46.29
55171;BME280;41060;47.510;8.680;2023-01-23T04:55:37;98059.91;;;2.18;46.67
55171;BME280;41060;47.510;8.680;2023-01-23T04:58:07;97716.28;;;0.22;46.67
55171;BME280;41060;47.510;8.680;2023-01-23T05:00:36;98056.28;;;2.24;46.46
55171;BME280;41060;47.510;8.680;2023-01-23T05:03:03;98058.94;;;2.23;46.76
55171;BME280;41060;47.510;8.680;2023-01-23T05:05:30;98048.78;;;2.12;46.61
55171;BME280;41060;47.510;8.680;2023-01-23T05:07:57;98052.47;;;2.06;47.01
55171;BME280;41060;47.510;8.680;2023-01-23T05:10:24;97990.53;;;1.53;47.34
55171;BME280;41060;47.510;8.680;2023-01-23T05:12:52;98036.72;;;1.80;47.76
55171;BME280;41060;47.510;8.680;2023-01-23T05:15:19;98030.03;;;1.71;47.41
55171;BME280;41060;47.510;8.680;2023-01-23T05:17:46;97870.47;;;0.66;47.58
55171;BME280;41060;47.510;8.680;2023-01-23T05:20:13;98042.34;;;1.66;47.50
55171;BME280;41060;47.510;8.680;2023-01-23T05:22:40;98064.44;;;1.55;48.05
55171;BME280;41060;47.510;8.680;2023-01-23T05:25:17;98052.66;;;1.42;48.21
55171;BME280;41060;47.510;8.680;2023-01-23T05:27:44;97979.38;;;0.87;48.13
55171;BME280;41060;47.510;8.680;2023-01-23T05:30:12;98066.78;;;1.34;48.88
55171;BME280;41060;47.510;8.680;2023-01-23T05:32:39;98060.94;;;1.25;48.44
55171;BME280;41060;47.510;8.680;2023-01-23T05:35:07;98037.09;;;1.06;48.42
55171;BME280;41060;47.510;8.680;2023-01-23T05:37:34;98019.88;;;1.00;48.70
55171;BME280;41060;47.510;8.680;2023-01-23T05:40:01;98077.94;;;1.39;48.06
55171;BME280;41060;47.510;8.680;2023-01-23T05:42:28;98067.47;;;1.41;47.85
55171;BME280;41060;47.510;8.680;2023-01-23T05:44:54;98083.06;;;1.12;48.74
55171;BME280;41060;47.510;8.680;2023-01-23T05:47:22;98080.75;;;1.32;48.75
55171;BME280;41060;47.510;8.680;2023-01-23T05:49:50;98086.41;;;1.48;48.63
55171;BME280;41060;47.510;8.680;2023-01-23T05:52:16;98074.00;;;1.25;48.33
55171;BME280;41060;47.510;8.680;2023-01-23T05:54:43;98104.00;;;1.07;49.02
55171;BME280;41060;47.510;8.680;2023-01-23T05:57:10;98029.88;;;0.51;49.71
55171;BME280;41060;47.510;8.680;2023-01-23T05:59:37;97999.75;;;0.39;49.20
55171;BME280;41060;47.510;8.680;2023-01-23T06:02:03;98092.81;;;1.04;49.38
55171;BME280;41060;47.510;8.680;2023-01-23T06:04:34;98110.97;;;1.07;49.14
55171;BME280;41060;47.510;8.680;2023-01-23T06:07:01;98095.31;;;1.08;49.16
55171;BME280;41060;47.510;8.680;2023-01-23T06:09:28;98068.72;;;0.94;48.56
55171;BME280;41060;47.510;8.680;2023-01-23T06:11:55;98099.97;;;0.97;49.22
55171;BME280;41060;47.510;8.680;2023-01-23T06:14:21;98105.66;;;1.11;49.10
55171;BME280;41060;47.510;8.680;2023-01-23T06:16:48;98044.50;;;0.90;48.57
55171;BME280;41060;47.510;8.680;2023-01-23T06:19:15;98095.47;;;1.02;49.34
55171;BME280;41060;47.510;8.680;2023-01-23T06:21:43;98031.09;;;0.36;49.76
55171;BME280;41060;47.510;8.680;2023-01-23T06:24:09;98107.09;;;0.90;49.76
55171;BME280;41060;47.510;8.680;2023-01-23T06:26:37;98098.41;;;0.90;49.99
55171;BME280;41060;47.510;8.680;2023-01-23T06:29:05;98025.78;;;0.41;49.86
55171;BME280;41060;47.510;8.680;2023-01-23T06:31:31;98111.66;;;0.81;50.05
55171;BME280;41060;47.510;8.680;2023-01-23T06:33:59;98015.53;;;0.33;49.73
55171;BME280;41060;47.510;8.680;2023-01-23T06:36:26;98115.47;;;1.01;49.05
55171;BME280;41060;47.510;8.680;2023-01-23T06:38:54;98126.94;;;0.96;49.63
55171;BME280;41060;47.510;8.680;2023-01-23T06:41:21;98090.72;;;0.84;48.99
55171;BME280;41060;47.510;8.680;2023-01-23T06:43:48;98121.63;;;0.99;49.08
55171;BME280;41060;47.510;8.680;2023-01-23T06:46:15;98120.25;;;1.18;49.05
55171;BME280;41060;47.510;8.680;2023-01-23T06:48:42;98061.50;;;1.05;48.38
55171;BME280;41060;47.510;8.680;2023-01-23T06:51:09;98048.59;;;0.67;49.04
55171;BME280;41060;47.510;8.680;2023-01-23T06:53:35;98115.34;;;1.06;49.32
55171;BME280;41060;47.510;8.680;2023-01-23T06:56:05;98108.75;;;0.57;49.55
55171;BME280;41060;47.510;8.680;2023-01-23T06:58:33;98114.16;;;0.85;49.30
55171;BME280;41060;47.510;8.680;2023-01-23T07:01:07;98117.38;;;0.95;48.94
55171;BME280;41060;47.510;8.680;2023-01-23T07:03:35;98113.75;;;1.00;48.95
55171;BME280;41060;47.510;8.680;2023-01-23T07:06:01;98115.81;;;0.88;49.09
55171;BME280;41060;47.510;8.680;2023-01-23T07:08:31;98107.53;;;0.72;49.09
55171;BME280;41060;47.510;8.680;2023-01-23T07:10:58;98025.06;;;0.34;49.10
55171;BME280;41060;47.510;8.680;2023-01-23T07:13:26;98041.59;;;0.33;49.07
55171;BME280;41060;47.510;8.680;2023-01-23T07:15:52;98092.94;;;0.65;49.34
55171;BME280;41060;47.510;8.680;2023-01-23T07:18:20;98027.00;;;0.26;48.90
55171;BME280;41060;47.510;8.680;2023-01-23T07:20:46;98079.44;;;0.48;48.92
55171;BME280;41060;47.510;8.680;2023-01-23T07:23:16;97895.56;;;-0.29;48.54
55171;BME280;41060;47.510;8.680;2023-01-23T07:25:43;98056.75;;;0.53;48.14
55171;BME280;41060;47.510;8.680;2023-01-23T07:28:10;98009.59;;;0.62;47.46
55171;BME280;41060;47.510;8.680;2023-01-23T07:30:38;98025.16;;;0.65;47.94
55171;BME280;41060;47.510;8.680;2023-01-23T07:33:06;98114.75;;;1.29;47.26
55171;BME280;41060;47.510;8.680;2023-01-23T07:35:32;98114.69;;;1.32;47.77
55171;BME280;41060;47.510;8.680;2023-01-23T07:37:59;98069.00;;;1.16;46.84
55171;BME280;41060;47.510;8.680;2023-01-23T07:40:26;98124.38;;;1.27;47.08
55171;BME280;41060;47.510;8.680;2023-01-23T07:42:58;98091.66;;;1.14;47.33
55171;BME280;41060;47.510;8.680;2023-01-23T07:45:25;98093.66;;;1.06;47.62
55171;BME280;41060;47.510;8.680;2023-01-23T07:47:53;98125.34;;;1.23;48.42
55171;BME280;41060;47.510;8.680;2023-01-23T07:50:20;98131.06;;;1.37;47.58
55171;BME280;41060;47.510;8.680;2023-01-23T07:52:46;98136.97;;;1.44;47.38
55171;BME280;41060;47.510;8.680;2023-01-23T07:55:13;98035.53;;;0.68;47.52
55171;BME280;41060;47.510;8.680;2023-01-23T07:57:42;98104.78;;;1.43;47.28
55171;BME280;41060;47.510;8.680;2023-01-23T08:00:10;98085.38;;;1.21;46.77
55171;BME280;41060;47.510;8.680;2023-01-23T08:02:37;98044.50;;;0.90;47.48
55171;BME280;41060;47.510;8.680;2023-01-23T08:05:06;98082.91;;;1.16;47.31
55171;BME280;41060;47.510;8.680;2023-01-23T08:07:33;98148.81;;;1.57;47.20
55171;BME280;41060;47.510;8.680;2023-01-23T08:10:00;98068.59;;;0.98;47.77
55171;BME280;41060;47.510;8.680;2023-01-23T08:12:26;98137.81;;;1.76;46.82
55171;BME280;41060;47.510;8.680;2023-01-23T08:14:53;97985.00;;;0.72;46.69
55171;BME280;41060;47.510;8.680;2023-01-23T08:17:20;98107.25;;;1.49;47.52
55171;BME280;41060;47.510;8.680;2023-01-23T08:19:50;98157.22;;;1.66;47.21
55171;BME280;41060;47.510;8.680;2023-01-23T08:22:17;98121.09;;;1.82;46.78
55171;BME280;41060;47.510;8.680;2023-01-23T08:24:45;98097.16;;;1.66;47.17
55171;BME280;41060;47.510;8.680;2023-01-23T08:27:13;98119.22;;;1.87;47.17
55171;BME280;41060;47.510;8.680;2023-01-23T08:29:39;98120.38;;;2.06;46.40
55171;BME280;41060;47.510;8.680;2023-01-23T08:32:06;98115.31;;;2.02;46.16
55171;BME280;41060;47.510;8.680;2023-01-23T08:34:33;97881.16;;;0.57;46.95
55171;BME280;41060;47.510;8.680;2023-01-23T08:37:00;98104.22;;;1.94;46.80
55171;BME280;41060;47.510;8.680;2023-01-23T08:39:29;98067.06;;;1.84;46.02
55171;BME280;41060;47.510;8.680;2023-01-23T08:41:55;98036.09;;;1.72;47.40
55171;BME280;41060;47.510;8.680;2023-01-23T08:44:22;98106.09;;;2.18;46.16
55171;BME280;41060;47.510;8.680;2023-01-23T08:46:49;98113.56;;;2.30;45.93
55171;BME280;41060;47.510;8.680;2023-01-23T08:49:16;98104.91;;;2.28;45.74
55171;BME280;41060;47.510;8.680;2023-01-23T08:51:44;98103.16;;;2.01;47.30
55171;BME280;41060;47.510;8.680;2023-01-23T08:54:11;98026.22;;;1.82;46.36
55171;BME280;41060;47.510;8.680;2023-01-23T08:56:39;98100.44;;;2.32;46.68
55171;BME280;41060;47.510;8.680;2023-01-23T08:59:06;98037.22;;;1.93;45.82
55171;BME280;41060;47.510;8.680;2023-01-23T09:01:33;98063.00;;;2.03;46.42
55171;BME280;41060;47.510;8.680;2023-01-23T09:04:00;98095.59;;;2.19;46.80
55171;BME280;41060;47.510;8.680;2023-01-23T09:06:27;98063.00;;;2.03;46.88
55171;BME280;41060;47.510;8.680;2023-01-23T09:08:54;98012.66;;;1.70;46.37
55171;BME280;41060;47.510;8.680;2023-01-23T09:11:20;98107.44;;;2.31;46.49
55171;BME280;41060;47.510;8.680;2023-01-23T09:13:49;98094.81;;;2.45;46.88
55171;BME280;41060;47.510;8.680;2023-01-23T09:16:19;98057.69;;;2.34;45.60
55171;BME280;41060;47.510;8.680;2023-01-23T09:18:47;98053.06;;;2.42;45.54
55171;BME280;41060;47.510;8.680;2023-01-23T09:21:15;98093.03;;;2.72;46.28
55171;BME280;41060;47.510;8.680;2023-01-23T09:23:43;98075.69;;;2.70;45.34
55171;BME280;41060;47.510;8.680;2023-01-23T09:26:11;98093.50;;;2.85;45.36
55171;BME280;41060;47.510;8.680;2023-01-23T09:28:39;98081.00;;;2.68;46.12
55171;BME280;41060;47.510;8.680;2023-01-23T09:31:10;98105.25;;;2.72;46.54
55171;BME280;41060;47.510;8.680;2023-01-23T09:33:37;98101.97;;;2.67;46.49
55171;BME280;41060;47.510;8.680;2023-01-23T09:36:06;97915.31;;;1.65;46.40
55171;BME280;41060;47.510;8.680;2023-01-23T09:38:33;98096.44;;;2.48;46.66
55171;BME280;41060;47.510;8.680;2023-01-23T09:41:07;98104.13;;;2.25;47.59
55171;BME280;41060;47.510;8.680;2023-01-23T09:43:41;98078.16;;;2.20;47.71
55171;BME280;41060;47.510;8.680;2023-01-23T09:46:17;98081.88;;;2.13;48.38
55171;BME280;41060;47.510;8.680;2023-01-23T09:48:48;98111.97;;;2.25;48.43
55171;BME280;41060;47.510;8.680;2023-01-23T09:51:23;98095.94;;;2.37;48.23
55171;BME280;41060;47.510;8.680;2023-01-23T09:53:55;98088.75;;;2.43;48.62
55171;BME280;41060;47.510;8.680;2023-01-23T09:56:29;98073.28;;;2.37;47.72
55171;BME280;41060;47.510;8.680;2023-01-23T09:59:09;98043.38;;;2.18;48.26
55171;BME280;41060;47.510;8.680;2023-01-23T10:01:39;98078.47;;;2.39;48.14
55171;BME280;41060;47.510;8.680;2023-01-23T10:04:09;98059.88;;;2.20;48.84
55171;BME280;41060;47.510;8.680;2023-01-23T10:06:52;98039.78;;;1.94;49.57
55171;BME280;41060;47.510;8.680;2023-01-23T10:09:34;98077.72;;;2.06;49.01
55171;BME280;41060;47.510;8.680;2023-01-23T10:12:05;98043.56;;;2.12;49.14
55171;BME280;41060;47.510;8.680;2023-01-23T10:15:00;98070.78;;;2.33;48.59
55171;BME280;41060;47.510;8.680;2023-01-23T10:17:38;98080.97;;;2.14;49.62
55171;BME280;41060;47.510;8.680;2023-01-23T10:20:18;98072.97;;;2.18;49.53
55171;BME280;41060;47.510;8.680;2023-01-23T10:22:58;98071.75;;;2.30;48.63
55171;BME280;41060;47.510;8.680;2023-01-23T10:25:31;98065.56;;;2.33;49.31
55171;BME280;41060;47.510;8.680;2023-01-23T10:28:22;98045.50;;;2.33;49.01
55171;BME280;41060;47.510;8.680;2023-01-23T10:30:56;98044.53;;;2.37;49.26
55171;BME280;41060;47.510;8.680;2023-01-23T10:33:33;98070.44;;;2.70;49.02
55171;BME280;41060;47.510;8.680;2023-01-23T10:36:06;97869.41;;;1.58;49.05
55171;BME280;41060;47.510;8.680;2023-01-23T10:38:44;98061.88;;;2.66;49.28
55171;BME280;41060;47.510;8.680;2023-01-23T10:41:15;98047.59;;;2.50;49.49
55171;BME280;41060;47.510;8.680;2023-01-23T10:43:46;98050.34;;;2.17;50.11
55171;BME280;41060;47.510;8.680;2023-01-23T10:46:14;98055.31;;;2.27;49.73
55171;BME280;41060;47.510;8.680;2023-01-23T10:48:44;98046.53;;;2.29;50.26
55171;BME280;41060;47.510;8.680;2023-01-23T10:51:32;98031.69;;;2.30;50.53
55171;BME280;41060;47.510;8.680;2023-01-23T10:56:55;98035.50;;;2.19;50.09
55171;BME280;41060;47.510;8.680;2023-01-23T10:59:28;98022.72;;;2.38;50.04
55171;BME280;41060;47.510;8.680;2023-01-23T11:02:18;97978.91;;;2.18;49.26
55171;BME280;41060;47.510;8.680;2023-01-23T11:04:48;98012.44;;;2.58;49.54
55171;BME280;41060;47.510;8.680;2023-01-23T11:07:17;98008.06;;;2.59;49.29
55171;BME280;41060;47.510;8.680;2023-01-23T11:09:51;98020.41;;;2.80;49.27
55171;BME280;41060;47.510;8.680;2023-01-23T11:12:20;97988.97;;;2.31;49.46
55171;BME280;41060;47.510;8.680;2023-01-23T11:14:48;98007.00;;;2.65;49.47
55171;BME280;41060;47.510;8.680;2023-01-23T11:17:17;97943.47;;;2.36;49.27
55171;BME280;41060;47.510;8.680;2023-01-23T11:19:48;98009.06;;;2.81;49.39
55171;BME280;41060;47.510;8.680;2023-01-23T11:22:26;98005.19;;;2.91;48.65
55171;BME280;41060;47.510;8.680;2023-01-23T11:24:54;97963.63;;;2.59;49.25
55171;BME280;41060;47.510;8.680;2023-01-23T11:27:23;97953.25;;;2.56;49.15
55171;BME280;41060;47.510;8.680;2023-01-23T11:30:32;97992.66;;;3.01;48.61
55171;BME280;41060;47.510;8.680;2023-01-23T11:33:09;97992.94;;;2.69;49.28
55171;BME280;41060;47.510;8.680;2023-01-23T11:35:51;97988.34;;;2.75;49.33
55171;BME280;41060;47.510;8.680;2023-01-23T11:38:22;97986.03;;;2.66;49.21
55171;BME280;41060;47.510;8.680;2023-01-23T11:40:50;97975.19;;;2.52;49.42
55171;BME280;41060;47.510;8.680;2023-01-23T11:43:17;97971.72;;;2.51;49.71
55171;BME280;41060;47.510;8.680;2023-01-23T11:45:55;97952.69;;;2.22;50.73
55171;BME280;41060;47.510;8.680;2023-01-23T11:48:34;97976.31;;;2.45;50.52
55171;BME280;41060;47.510;8.680;2023-01-23T11:51:10;97973.94;;;2.88;49.06
55171;BME280;41060;47.510;8.680;2023-01-23T11:53:44;97968.66;;;3.13;48.43
55171;BME280;41060;47.510;8.680;2023-01-23T11:56:32;97946.19;;;3.08;48.10
55171;BME280;41060;47.510;8.680;2023-01-23T12:02:09;97952.31;;;3.07;48.99
55171;BME280;41060;47.510;8.680;2023-01-23T12:05:01;97950.97;;;2.96;49.25
55171;BME280;41060;47.510;8.680;2023-01-23T12:07:41;97947.84;;;2.85;49.97
55171;BME280;41060;47.510;8.680;2023-01-23T12:10:19;97948.94;;;3.05;49.42
55171;BME280;41060;47.510;8.680;2023-01-23T12:13:16;97938.38;;;3.29;48.50
55171;BME280;41060;47.510;8.680;2023-01-23T12:16:04;97934.88;;;3.30;48.15
55171;BME280;41060;47.510;8.680;2023-01-23T12:18:42;97929.53;;;3.10;49.13
55171;BME280;41060;47.510;8.680;2023-01-23T12:21:16;97942.91;;;3.26;48.32
55171;BME280;41060;47.510;8.680;2023-01-23T12:24:10;97943.47;;;3.34;48.61
55171;BME280;41060;47.510;8.680;2023-01-23T12:26:44;97923.28;;;3.38;47.87
55171;BME280;41060;47.510;8.680;2023-01-23T12:29:50;97935.47;;;3.39;48.30
55171;BME280;41060;47.510;8.680;2023-01-23T12:32:38;97933.22;;;3.51;48.70
55171;BME280;41060;47.510;8.680;2023-01-23T12:35:24;97929.81;;;3.26;48.43
55171;BME280;41060;47.510;8.680;2023-01-23T12:38:09;97929.75;;;3.27;48.54
55171;BME280;41060;47.510;8.680;2023-01-23T12:40:42;97884.00;;;3.14;47.97
55171;BME280;41060;47.510;8.680;2023-01-23T12:43:14;97909.13;;;3.20;48.85
55171;BME280;41060;47.510;8.680;2023-01-23T12:45:44;97922.13;;;3.21;48.87
55171;BME280;41060;47.510;8.680;2023-01-23T12:48:17;97918.81;;;3.16;49.48
55171;BME280;41060;47.510;8.680;2023-01-23T12:50:50;97916.72;;;3.03;49.85
55171;BME280;41060;47.510;8.680;2023-01-23T12:53:19;97917.84;;;2.95;50.26
55171;BME280;41060;47.510;8.680;2023-01-23T12:55:54;97862.28;;;2.66;49.68
55171;BME280;41060;47.510;8.680;2023-01-23T12:58:25;97924.16;;;3.13;49.28
55171;BME280;41060;47.510;8.680;2023-01-23T13:01:00;97917.69;;;3.23;49.30
55171;BME280;41060;47.510;8.680;2023-01-23T13:03:41;97918.81;;;3.41;48.83
55171;BME280;41060;47.510;8.680;2023-01-23T13:06:25;97921.53;;;3.38;48.60
55171;BME280;41060;47.510;8.680;2023-01-23T13:08:54;97888.91;;;3.00;49.19
55171;BME280;41060;47.510;8.680;2023-01-23T13:11:31;97914.69;;;3.34;49.12
55171;BME280;41060;47.510;8.680;2023-01-23T13:14:19;97916.72;;;3.03;49.74
55171;BME280;41060;47.510;8.680;2023-01-23T13:16:48;97900.28;;;2.76;50.68
55171;BME280;41060;47.510;8.680;2023-01-23T13:19:22;97879.22;;;2.31;51.29
55171;BME280;41060;47.510;8.680;2023-01-23T13:22:23;97910.16;;;2.91;50.20
55171;BME280;41060;47.510;8.680;2023-01-23T13:24:52;97924.28;;;2.87;51.19
55171;BME280;41060;47.510;8.680;2023-01-23T13:27:44;97927.75;;;2.87;50.47
55171;BME280;41060;47.510;8.680;2023-01-23T13:30:38;97919.25;;;2.81;51.06
55171;BME280;41060;47.510;8.680;2023-01-23T13:33:47;97852.16;;;2.56;50.78